Pursley, Texas
Current Conditions -  °F | °C
As of 2:53 PM on Friday 31 Oct 2014 (Local Time) from KCRS Reporting Station
Clear Clear  
Wind Chill: 68°   Ceiling: Unl
Heat Index: 68°   Visibility: 10mi
Dew Point: 40°   Wind: 18mph
Humidity: 36%   Direction: 10°N
Pressure: 30.27"   Gusts: NA
Location:  31.9458°N, 96.5713°W
Report Text: KCRS 311953Z AUTO 01016KT 10SM CLR 20/04 A3027 RMK AO2 RAB00E33 SLP247 P0000 T02000044
Loading
Personal Weather Stations






























Interactive Weather Map
Tropical Storm Tracking
New forecast layout! Learn more

10-Day Weather Forecast

Advertisements
Track Severe Weather on mobile